Time;durP1;ratioP1;P1;durP2;ratioP2;P2;SDS_P1;SDS_P2;PMS_P1;PMS_P2;Temp;Humidity;BMP_temperature;BMP_pressure;BME280_temperature;BME280_humidity;BME280_pressure;Samples;Min_cycle;Max_cycle;Signal;HPM_P1;HPM_P2
2022/03/08 00:01:50;;;;;;;24.77;7.63;;;;;;;1.22;69.89;100894.59;5064745;28;20355;-87
2022/03/08 00:04:25;;;;;;;19.10;8.02;;;;;;;1.16;70.13;100899.91;5078626;28;20083;-88
2022/03/08 00:06:51;;;;;;;23.85;6.68;;;;;;;1.17;70.34;100899.88;5082726;28;20028;-89
2022/03/08 00:09:19;;;;;;;18.58;6.95;;;;;;;1.08;70.25;100889.72;5083363;28;20055;-87
2022/03/08 00:12:05;;;;;;;15.85;6.90;;;;;;;1.06;70.81;100893.19;5077382;28;20155;-89
2022/03/08 00:14:33;;;;;;;12.27;5.72;;;;;;;1.02;70.62;100900.16;5056124;28;20509;-88
2022/03/08 00:16:58;;;;;;;18.17;6.18;;;;;;;0.95;70.90;100899.41;5075123;28;20099;-88
2022/03/08 00:19:26;;;;;;;16.02;5.85;;;;;;;0.90;71.58;100890.03;5058269;28;20423;-88
2022/03/08 00:22:00;;;;;;;15.35;6.55;;;;;;;0.89;71.54;100896.06;5060955;28;20021;-89
2022/03/08 00:24:26;;;;;;;10.50;5.93;;;;;;;0.91;71.86;100894.31;5058687;28;20113;-89
2022/03/08 00:26:59;;;;;;;13.63;5.88;;;;;;;0.86;71.88;100890.97;5058747;28;20053;-88
2022/03/08 00:29:24;;;;;;;22.88;6.65;;;;;;;0.84;71.77;100888.41;5059733;28;20041;-89
2022/03/08 00:31:57;;;;;;;15.13;6.57;;;;;;;0.86;71.82;100893.56;5054033;28;20093;-88
2022/03/08 00:34:23;;;;;;;12.82;6.15;;;;;;;0.79;71.92;100886.78;5055924;28;20021;-88
2022/03/08 00:36:49;;;;;;;15.02;5.72;;;;;;;0.75;72.58;100887.72;5058145;28;20031;-91
2022/03/08 00:39:14;;;;;;;13.68;6.35;;;;;;;0.67;72.76;100885.28;5058970;28;20120;-89
2022/03/08 00:41:40;;;;;;;14.77;5.97;;;;;;;0.67;72.47;100888.69;5060933;28;20051;-89
2022/03/08 00:44:08;;;;;;;17.63;6.13;;;;;;;0.53;72.63;100874.31;5060619;28;20029;-88
2022/03/08 00:46:34;;;;;;;17.92;6.07;;;;;;;0.46;73.61;100871.84;5063791;28;20085;-89
2022/03/08 00:48:59;;;;;;;13.00;6.40;;;;;;;0.38;73.31;100868.53;5067804;28;20033;-90
2022/03/08 00:51:26;;;;;;;12.40;5.65;;;;;;;0.35;73.91;100860.00;5081253;28;20054;-89
2022/03/08 00:53:52;;;;;;;15.60;5.60;;;;;;;0.36;73.68;100857.38;5074653;28;20028;-90
2022/03/08 00:56:17;;;;;;;15.25;6.45;;;;;;;0.38;73.67;100859.94;5074389;28;20036;-92
2022/03/08 00:58:44;;;;;;;14.15;5.63;;;;;;;0.37;73.70;100860.78;5070167;28;20056;-89
2022/03/08 01:01:09;;;;;;;15.45;6.18;;;;;;;0.35;73.66;100860.84;5070259;28;20021;-89
2022/03/08 01:03:35;;;;;;;13.68;6.78;;;;;;;0.30;73.97;100852.31;5071799;28;20029;-89
2022/03/08 01:06:00;;;;;;;15.35;5.32;;;;;;;0.28;74.12;100856.66;5057509;28;20448;-89
2022/03/08 01:08:29;;;;;;;12.52;5.60;;;;;;;0.27;74.02;100859.25;5100087;28;20029;-88
2022/03/08 01:10:54;;;;;;;14.73;6.15;;;;;;;0.28;74.08;100853.22;5073116;28;20021;-89
2022/03/08 01:13:20;;;;;;;15.02;5.78;;;;;;;0.27;74.11;100861.84;5090149;28;20037;-90
2022/03/08 01:15:47;;;;;;;16.65;6.18;;;;;;;0.23;74.37;100859.31;5107852;28;20021;-89
2022/03/08 01:18:13;;;;;;;15.88;5.57;;;;;;;0.18;74.70;100860.22;5067937;28;20045;-89
2022/03/08 01:20:40;;;;;;;13.82;6.35;;;;;;;0.14;74.35;100853.41;5073770;28;20032;-89
2022/03/08 01:23:06;;;;;;;16.40;6.15;;;;;;;0.09;75.06;100857.81;5074445;28;20053;-87
2022/03/08 01:25:32;;;;;;;10.93;5.20;;;;;;;0.11;74.68;100850.88;5057888;28;20029;-88
2022/03/08 01:27:57;;;;;;;15.80;5.10;;;;;;;0.18;74.59;100852.50;5054588;28;20032;-89
2022/03/08 01:30:25;;;;;;;15.73;5.43;;;;;;;0.13;74.68;100839.69;5056513;28;20042;-89
2022/03/08 01:32:52;;;;;;;13.10;5.40;;;;;;;0.04;74.58;100844.09;5107653;28;20021;-90
2022/03/08 01:35:18;;;;;;;12.65;5.03;;;;;;;-0.05;75.23;100834.78;5095661;28;20040;-89
2022/03/08 01:37:48;;;;;;;16.55;6.40;;;;;;;-0.08;75.96;100846.00;5095992;28;20080;-90
2022/03/08 01:40:15;;;;;;;;;;;;;;;-0.14;76.37;100843.53;5091076;28;20016;-88
2022/03/08 01:42:48;;;;;;;12.18;5.43;;;;;;;-0.20;75.97;100837.59;5089129;28;19919;-88
2022/03/08 01:45:20;;;;;;;14.95;5.82;;;;;;;-0.34;76.04;100841.19;5091211;28;20040;-88
2022/03/08 01:47:46;;;;;;;15.00;6.90;;;;;;;-0.49;76.25;100831.94;5094017;28;20064;-89
2022/03/08 01:50:13;;;;;;;13.20;6.10;;;;;;;-0.60;76.33;100827.81;5087039;28;20088;-87
2022/03/08 01:52:39;;;;;;;13.18;6.35;;;;;;;-0.68;77.20;100822.75;5096581;28;20039;-87
2022/03/08 01:55:07;;;;;;;17.70;6.78;;;;;;;-0.71;77.65;100834.81;5097507;28;20024;-87
2022/03/08 01:57:33;;;;;;;22.25;7.32;;;;;;;-0.79;78.22;100825.44;5088164;28;20032;-87
2022/03/08 02:00:00;;;;;;;17.95;6.65;;;;;;;-0.86;78.26;100823.81;5096496;28;20044;-89
2022/03/08 02:02:26;;;;;;;15.63;6.43;;;;;;;-0.96;78.19;100822.22;5082831;28;20495;-91
2022/03/08 02:04:52;;;;;;;17.17;7.10;;;;;;;-0.98;78.58;100813.66;5092683;28;20036;-88
2022/03/08 02:07:18;;;;;;;16.15;6.35;;;;;;;-1.04;78.69;100819.75;5092464;28;20012;-88
2022/03/08 02:09:58;;;;;;;21.20;7.07;;;;;;;-1.10;78.43;100811.22;5093289;28;20029;-89
2022/03/08 02:12:24;;;;;;;14.27;7.57;;;;;;;-1.19;79.50;100803.59;5095176;28;20138;-87
2022/03/08 02:14:52;;;;;;;18.95;7.45;;;;;;;-1.23;79.37;100810.50;5096588;28;20104;-86
2022/03/08 02:17:22;;;;;;;19.30;7.55;;;;;;;-1.26;79.94;100819.13;5096163;28;20016;-86
2022/03/08 02:19:57;;;;;;;16.45;6.95;;;;;;;-1.28;79.84;100825.13;5091521;27;20031;-87
2022/03/08 02:22:23;;;;;;;20.00;7.38;;;;;;;-1.32;80.28;100826.88;5073504;28;20457;-89
2022/03/08 02:24:50;;;;;;;15.95;6.95;;;;;;;-1.31;80.69;100828.56;5088606;28;20446;-88
2022/03/08 02:27:18;;;;;;;17.88;7.32;;;;;;;-1.33;80.75;100827.75;5077467;28;20043;-89
2022/03/08 02:29:47;;;;;;;15.20;7.22;;;;;;;-1.35;80.55;100828.63;5076552;28;20044;-90
2022/03/08 02:32:14;;;;;;;15.25;6.88;;;;;;;-1.39;81.12;100826.94;5078952;28;20035;-89
2022/03/08 02:34:39;;;;;;;21.00;7.72;;;;;;;-1.40;81.11;100825.25;5083278;28;20067;-90
2022/03/08 02:37:11;;;;;;;18.25;7.63;;;;;;;-1.36;81.73;100827.78;5121687;28;20028;-89
2022/03/08 02:39:38;;;;;;;17.42;7.88;;;;;;;-1.39;81.86;100829.53;5092583;28;20032;-89
2022/03/08 02:42:05;;;;;;;20.23;8.30;;;;;;;-1.43;81.77;100831.28;5094949;28;20127;-90
2022/03/08 02:44:32;;;;;;;20.90;8.40;;;;;;;-1.37;82.20;100836.38;5095096;28;20024;-89
2022/03/08 02:47:03;;;;;;;19.13;8.32;;;;;;;-1.36;82.45;100827.78;5085189;28;20148;-89
2022/03/08 02:49:30;;;;;;;25.75;8.30;;;;;;;-1.33;82.48;100832.91;5094434;28;20025;-90
2022/03/08 02:51:57;;;;;;;22.00;7.82;;;;;;;-1.32;82.56;100837.16;5095140;28;20028;-90
2022/03/08 02:54:24;;;;;;;17.15;7.88;;;;;;;-1.17;82.63;100832.75;5094519;28;20028;-90
2022/03/08 02:56:50;;;;;;;16.55;7.50;;;;;;;-0.97;81.68;100831.66;5085632;28;20060;-90
2022/03/08 02:59:20;;;;;;;15.00;7.30;;;;;;;-1.00;81.10;100833.44;5080368;28;20513;-89
2022/03/08 03:01:49;;;;;;;17.08;8.05;;;;;;;-0.92;81.07;100835.94;5076368;28;20036;-90
2022/03/08 03:04:18;;;;;;;15.82;7.07;;;;;;;-0.88;80.57;100832.44;5065334;28;20024;-90
2022/03/08 03:06:45;;;;;;;16.92;7.63;;;;;;;-0.99;80.91;100838.56;5075207;28;20020;-89
2022/03/08 03:09:11;;;;;;;14.30;7.28;;;;;;;-1.07;81.58;100835.22;5076184;28;20048;-89
2022/03/08 03:11:37;;;;;;;23.27;8.15;;;;;;;-1.10;81.19;100837.81;5074624;28;20033;-89
2022/03/08 03:14:02;;;;;;;21.50;7.95;;;;;;;-1.13;81.94;100840.41;5080881;28;20021;-89
2022/03/08 03:16:29;;;;;;;17.55;7.43;;;;;;;-1.10;82.30;100844.69;5091022;28;20154;-88
2022/03/08 03:18:57;;;;;;;19.33;8.23;;;;;;;-1.09;82.14;100846.38;5078509;28;20040;-88
2022/03/08 03:21:24;;;;;;;20.13;8.18;;;;;;;-1.13;81.96;100849.84;5079612;28;20036;-88
2022/03/08 03:23:53;;;;;;;17.00;7.25;;;;;;;-1.24;82.39;100853.38;5079077;28;20024;-89
2022/03/08 03:26:18;;;;;;;17.85;6.78;;;;;;;-1.29;82.47;100847.44;5076479;28;20029;-91
2022/03/08 03:28:44;;;;;;;18.27;7.18;;;;;;;-1.37;82.10;100851.81;5084329;28;20147;-88
2022/03/08 03:31:10;;;;;;;15.35;6.78;;;;;;;-1.48;82.17;100846.75;5067183;28;20056;-89
2022/03/08 03:33:36;;;;;;;15.43;7.15;;;;;;;-1.57;82.31;100849.38;5080767;28;20118;-89
2022/03/08 03:36:02;;;;;;;21.80;7.63;;;;;;;-1.62;83.54;100853.72;5077964;28;20133;-89
2022/03/08 03:38:30;;;;;;;28.10;12.07;;;;;;;-1.64;83.42;100847.72;5079749;28;20032;-90
2022/03/08 03:40:55;;;;;;;24.80;11.18;;;;;;;-1.67;83.39;100852.88;5074889;28;20031;-90
2022/03/08 03:43:21;;;;;;;20.40;9.68;;;;;;;-1.71;83.81;100851.19;5089207;28;20027;-90
2022/03/08 03:45:50;;;;;;;18.55;8.82;;;;;;;-1.75;83.39;100846.94;5077052;28;20108;-91
2022/03/08 03:48:16;;;;;;;;;;;;;;;-1.80;83.58;100849.56;5073435;28;20036;-91
2022/03/08 03:50:42;;;;;;;20.52;7.97;;;;;;;-1.83;84.01;100844.44;5080525;28;19915;-90
2022/03/08 03:53:09;;;;;;;19.65;8.35;;;;;;;-1.85;83.87;100842.78;5091643;28;20037;-88
2022/03/08 03:55:35;;;;;;;24.48;8.05;;;;;;;-1.86;84.52;100846.19;5082096;28;20033;-90
2022/03/08 03:58:00;;;;;;;18.35;7.72;;;;;;;-1.84;84.47;100841.91;5082312;28;20024;-90
2022/03/08 04:00:27;;;;;;;18.65;7.53;;;;;;;-1.86;84.61;100841.88;5077662;28;20041;-89
2022/03/08 04:02:55;;;;;;;19.75;8.57;;;;;;;-1.87;84.91;100842.75;5082925;28;20415;-89
2022/03/08 04:05:21;;;;;;;36.15;9.70;;;;;;;-1.88;85.51;100845.34;5077936;28;20040;-89
2022/03/08 04:07:48;;;;;;;17.65;7.47;;;;;;;-1.82;85.76;100832.44;5072808;28;20467;-88
2022/03/08 04:10:16;;;;;;;26.77;8.63;;;;;;;-1.85;85.36;100835.06;5073866;28;20021;-84
2022/03/08 04:12:44;;;;;;;23.25;8.15;;;;;;;-1.90;85.16;100837.63;5094641;28;20036;-89
2022/03/08 04:15:10;;;;;;;23.90;9.30;;;;;;;-1.94;85.62;100838.53;5093495;28;20024;-87
2022/03/08 04:17:44;;;;;;;31.48;12.05;;;;;;;-1.98;85.87;100837.69;5093293;28;20054;-90
2022/03/08 04:20:11;;;;;;;53.90;21.85;;;;;;;-2.00;85.99;100833.44;5093625;28;20029;-89
2022/03/08 04:22:42;;;;;;;31.60;11.57;;;;;;;-2.01;85.86;100839.44;5077962;28;20047;-90
2022/03/08 04:25:08;;;;;;;24.75;9.00;;;;;;;-2.07;85.95;100836.91;5074769;28;20504;-89
2022/03/08 04:27:34;;;;;;;18.63;8.38;;;;;;;-2.10;86.19;100845.50;5062038;28;20044;-91
2022/03/08 04:30:01;;;;;;;25.15;7.68;;;;;;;-2.09;86.03;100847.19;5070401;28;20064;-90
2022/03/08 04:32:26;;;;;;;20.85;8.95;;;;;;;-2.10;86.24;100844.63;5055308;28;20075;-90
2022/03/08 04:34:52;;;;;;;23.45;9.13;;;;;;;-2.13;86.47;100847.22;5052731;28;20448;-91
2022/03/08 04:37:22;;;;;;;24.05;8.90;;;;;;;-2.15;87.15;100846.38;5088859;28;20039;-91
2022/03/08 04:40:05;;;;;;;20.35;8.13;;;;;;;-2.17;87.43;100848.09;5074051;28;20320;-92
2022/03/08 04:42:34;;;;;;;24.15;9.55;;;;;;;-2.11;87.38;100845.47;5075972;28;20076;-91
2022/03/08 04:45:04;;;;;;;27.25;9.55;;;;;;;-2.09;88.08;100848.91;5075806;28;20055;-91
2022/03/08 04:47:35;;;;;;;32.17;9.52;;;;;;;-2.12;87.67;100846.34;5074013;28;20044;-89
2022/03/08 04:50:13;;;;;;;26.80;9.13;;;;;;;-2.13;87.79;100845.50;5065549;28;20032;-90
2022/03/08 04:52:42;;;;;;;27.52;9.23;;;;;;;-2.15;87.30;100854.94;5074944;28;20033;-91
2022/03/08 04:55:08;;;;;;;31.37;8.50;;;;;;;-2.21;87.09;100847.25;5073564;28;20115;-91
2022/03/08 04:57:53;;;;;;;22.23;8.85;;;;;;;-2.25;86.46;100843.00;5075291;28;20364;-91
2022/03/08 05:00:35;;;;;;;39.83;17.40;;;;;;;-2.27;86.38;100850.69;5067529;28;20044;-91
2022/03/08 05:03:38;;;;;;;29.90;13.88;;;;;;;-2.31;86.71;100849.03;5069749;28;20055;-92
2022/03/08 05:06:45;;;;;;;19.52;8.93;;;;;;;-2.30;86.75;100844.72;5084881;28;20116;-92
2022/03/08 05:09:11;;;;;;;19.60;8.82;;;;;;;-2.30;87.13;100852.44;5051363;28;20460;-91
2022/03/08 05:11:45;;;;;;;19.67;9.52;;;;;;;-2.32;86.91;100849.88;5067394;28;20055;-91
2022/03/08 05:14:31;;;;;;;22.58;8.20;;;;;;;-2.28;87.10;100843.88;5087140;28;20040;-90
2022/03/08 05:17:18;;;;;;;17.63;7.68;;;;;;;-2.29;87.21;100852.44;5084768;28;20191;-91
2022/03/08 05:19:54;;;;;;;13.77;7.63;;;;;;;-2.20;87.48;100854.09;5069834;28;20036;-91
2022/03/08 05:22:37;;;;;;;21.75;7.20;;;;;;;-2.14;87.21;100848.94;5070332;28;20028;-91
2022/03/08 05:25:09;;;;;;;19.85;8.13;;;;;;;-2.10;87.29;100848.06;5078706;28;20037;-91
2022/03/08 05:27:44;;;;;;;19.85;8.77;;;;;;;-2.01;85.92;100852.28;5078753;28;20040;-91
2022/03/08 05:30:19;;;;;;;22.80;8.30;;;;;;;-2.10;84.87;100853.19;5077782;28;20174;-91
2022/03/08 05:32:45;;;;;;;29.58;11.02;;;;;;;-2.21;84.98;100853.25;5062067;28;20069;-91
2022/03/08 05:36:02;;;;;;;23.63;9.90;;;;;;;-2.34;84.60;100858.44;5082470;28;20078;-91
2022/03/08 05:38:33;;;;;;;31.08;10.60;;;;;;;-2.45;85.22;100850.78;5006702;28;20043;-88
2022/03/08 05:41:02;;;;;;;35.70;10.35;;;;;;;-2.45;86.01;100858.50;5023618;28;20487;-90
2022/03/08 05:43:30;;;;;;;21.42;9.40;;;;;;;-2.42;86.51;100860.22;5019774;28;20022;-88
2022/03/08 05:46:03;;;;;;;19.93;8.87;;;;;;;-2.47;86.43;100858.50;5019737;28;20022;-88
2022/03/08 05:48:33;;;;;;;23.98;9.80;;;;;;;-2.39;87.40;100852.50;4999602;28;20130;-89
2022/03/08 05:50:59;;;;;;;35.85;13.05;;;;;;;-2.27;88.40;100857.56;4989047;28;20150;-88
2022/03/08 05:53:26;;;;;;;29.45;10.90;;;;;;;-2.12;87.43;100864.31;4980623;28;20565;-89
2022/03/08 05:55:53;;;;;;;33.38;13.13;;;;;;;-2.04;86.96;100868.59;4997862;28;20037;-88
2022/03/08 05:58:32;;;;;;;24.60;10.02;;;;;;;-2.09;86.65;100872.03;4989362;28;20505;-90
2022/03/08 06:01:10;;;;;;;31.38;10.10;;;;;;;-2.13;86.57;100873.75;4999597;28;20041;-89
2022/03/08 06:03:35;;;;;;;30.42;12.13;;;;;;;-2.11;86.07;100878.88;4967853;28;20149;-88
2022/03/08 06:06:06;;;;;;;25.92;10.68;;;;;;;-2.15;85.92;100874.63;4984421;28;20042;-88
2022/03/08 06:08:38;;;;;;;32.75;11.63;;;;;;;-2.18;85.47;100883.22;5022957;28;20142;-90
2022/03/08 06:11:07;;;;;;;30.95;14.05;;;;;;;-1.90;87.59;100888.19;5058783;28;20029;-89
2022/03/08 06:13:36;;;;;;;27.90;12.50;;;;;;;-1.69;88.91;100889.78;5057705;28;20056;-87
2022/03/08 06:16:02;;;;;;;31.48;12.07;;;;;;;-1.62;84.49;100897.44;5059128;28;20024;-88
2022/03/08 06:18:27;;;;;;;29.15;12.68;;;;;;;-1.74;84.19;100897.53;5062568;28;20561;-87
2022/03/08 06:21:01;;;;;;;26.10;10.68;;;;;;;-1.79;83.96;100900.09;5063056;28;20120;-88
2022/03/08 06:23:42;;;;;;;;;;;;;;;;;;;;;
2022/03/08 06:26:14;;;;;;;36.05;10.23;;;;;;;-1.84;84.30;100895.88;5059169;28;20092;-88
2022/03/08 06:28:42;;;;;;;49.97;16.73;;;;;;;-1.91;83.88;100891.63;5059449;28;20090;-89
2022/03/08 06:31:23;;;;;;;41.40;11.57;;;;;;;-1.90;84.25;100903.59;5062185;28;20108;-90
2022/03/08 06:37:14;;;;;;;35.22;10.75;;;;;;;-1.79;84.49;100909.53;5001185;28;20092;-88
2022/03/08 06:39:39;;;;;;;29.00;10.93;;;;;;;-1.77;84.15;100908.66;4997220;28;20030;-87
2022/03/08 06:42:05;;;;;;;22.92;9.43;;;;;;;-1.72;84.21;100909.47;5003797;28;20120;-89
2022/03/08 06:44:38;;;;;;;24.75;9.32;;;;;;;-1.63;83.99;100908.59;4979889;28;20157;-88
2022/03/08 06:47:08;;;;;;;32.53;9.15;;;;;;;-1.57;83.90;100910.25;4979642;28;20172;-87
2022/03/08 06:49:36;;;;;;;22.70;8.52;;;;;;;-1.52;83.80;100905.91;4988870;28;20079;-87
2022/03/08 06:52:02;;;;;;;27.88;9.75;;;;;;;-1.43;84.36;100905.84;4982154;28;20100;-88
2022/03/08 06:54:28;;;;;;;26.00;9.25;;;;;;;-1.25;85.04;100910.84;4991911;28;20049;-89
2022/03/08 06:56:54;;;;;;;20.05;9.43;;;;;;;-1.09;84.64;100919.28;4994111;28;20053;-89
2022/03/08 06:59:23;;;;;;;19.30;7.78;;;;;;;-0.97;84.47;100916.59;4979657;28;20140;-90
2022/03/08 07:01:51;;;;;;;16.17;7.82;;;;;;;-0.85;84.04;100912.22;5001633;28;20045;-88
2022/03/08 07:04:19;;;;;;;26.55;8.80;;;;;;;-0.67;83.23;100919.72;4985286;28;20076;-90
2022/03/08 07:06:47;;;;;;;19.73;7.85;;;;;;;-0.45;82.22;100922.91;5013062;28;20141;-89
2022/03/08 07:09:41;;;;;;;32.05;9.45;;;;;;;-0.39;81.61;100922.84;4995161;28;20046;-88
2022/03/08 07:12:04;;;;;;;24.95;9.45;;;;;;;-0.30;81.29;100933.06;4984379;28;20492;-89
2022/03/08 07:17:28;;;;;;;24.48;9.77;;;;;;;-0.16;80.51;100938.03;5064782;28;20409;-88
2022/03/08 07:20:14;;;;;;;36.00;10.20;;;;;;;-0.10;80.65;100937.13;5061814;28;20040;-89
2022/03/08 07:22:42;;;;;;;40.80;11.25;;;;;;;-0.05;80.25;100943.06;5051129;28;20430;-89
2022/03/08 07:25:16;;;;;;;21.47;8.43;;;;;;;0.02;80.36;100936.94;5082695;28;20040;-91
2022/03/08 07:27:48;;;;;;;27.75;8.25;;;;;;;0.10;80.20;100937.69;5032010;28;20643;-89
2022/03/08 07:30:28;;;;;;;18.30;7.57;;;;;;;0.18;80.14;100932.44;5034151;28;20136;-88
2022/03/08 07:32:57;;;;;;;22.75;7.43;;;;;;;0.28;79.98;100928.00;5054141;28;20112;-87
2022/03/08 07:35:25;;;;;;;18.48;7.55;;;;;;;0.34;79.63;100936.53;5056221;28;20044;-91
2022/03/08 07:37:53;;;;;;;18.10;7.95;;;;;;;0.42;79.27;100934.66;5054713;28;20096;-89
2022/03/08 07:40:24;;;;;;;20.20;7.40;;;;;;;0.51;78.86;100944.00;5059151;28;20361;-89
2022/03/08 07:42:58;;;;;;;21.45;7.55;;;;;;;0.53;77.91;100931.94;5084417;28;20103;-89
2022/03/08 07:45:27;;;;;;;15.27;6.68;;;;;;;0.60;77.52;100935.28;5052403;28;20350;-90
2022/03/08 07:47:55;;;;;;;19.50;7.13;;;;;;;0.63;77.55;100930.03;5057154;28;20040;-90
2022/03/08 07:50:22;;;;;;;18.38;6.97;;;;;;;0.68;76.75;100931.69;5055936;28;20039;-86
2022/03/08 07:52:59;;;;;;;16.40;6.28;;;;;;;0.72;76.83;100919.59;5054785;28;20111;-90
2022/03/08 07:55:36;;;;;;;;;;;;;;;;;;;;;
2022/03/08 07:58:06;;;;;;;20.42;5.60;;;;;;;0.85;77.30;100923.66;5060562;28;20101;-90
2022/03/08 08:00:39;;;;;;;14.52;6.03;;;;;;;0.98;77.44;100923.47;5039624;28;20155;-88
2022/03/08 08:03:06;;;;;;;19.52;6.20;;;;;;;1.05;77.14;100917.31;5055078;28;20045;-88
2022/03/08 08:05:34;;;;;;;13.32;6.28;;;;;;;1.13;76.37;100924.03;5055323;28;20056;-87
2022/03/08 08:08:00;;;;;;;17.10;6.90;;;;;;;1.15;76.28;100924.88;5046615;28;20425;-90
2022/03/08 08:10:28;;;;;;;29.27;8.85;;;;;;;1.21;76.54;100929.91;5062467;28;20028;-88
2022/03/08 08:12:59;;;;;;;18.80;6.25;;;;;;;1.33;75.88;100925.41;5056635;28;20032;-89
2022/03/08 08:15:37;;;;;;;13.80;6.10;;;;;;;1.51;75.59;100934.53;5046692;28;20040;-87
2022/03/08 08:18:03;;;;;;;20.40;6.55;;;;;;;1.56;74.90;100938.75;5052281;28;20048;-87
2022/03/08 08:20:29;;;;;;;31.48;7.95;;;;;;;1.62;74.85;100938.63;5053877;28;20041;-86
2022/03/08 08:22:54;;;;;;;24.60;6.63;;;;;;;1.67;74.90;100941.16;5051226;28;20028;-88
2022/03/08 08:25:21;;;;;;;18.02;6.10;;;;;;;1.75;74.44;100938.41;5047865;28;20029;-89
2022/03/08 08:27:47;;;;;;;13.10;5.45;;;;;;;1.80;73.76;100939.16;5076108;28;20108;-84
2022/03/08 08:30:20;;;;;;;20.55;7.43;;;;;;;1.85;74.05;100945.06;5052114;28;20419;-88
2022/03/08 08:32:50;;;;;;;28.10;6.95;;;;;;;1.89;74.13;100932.06;5053853;28;20090;-87
2022/03/08 08:35:17;;;;;;;22.30;7.28;;;;;;;1.95;73.55;100925.91;5052288;28;20040;-89
2022/03/08 08:37:43;;;;;;;18.85;7.65;;;;;;;2.03;73.04;100934.34;5052198;28;20032;-90
2022/03/08 08:40:09;;;;;;;19.63;7.15;;;;;;;2.05;73.21;100930.00;5055993;28;20021;-89
2022/03/08 08:42:38;;;;;;;23.58;7.47;;;;;;;2.11;73.46;100937.63;5054794;28;20462;-88
2022/03/08 08:45:05;;;;;;;21.48;7.55;;;;;;;2.18;73.16;100934.00;5056507;28;20430;-88
2022/03/08 08:47:38;;;;;;;20.88;7.18;;;;;;;2.26;73.34;100922.63;5058263;28;20428;-88
2022/03/08 08:50:06;;;;;;;27.25;7.40;;;;;;;2.36;72.38;100924.13;5065390;28;20035;-89
2022/03/08 08:52:47;;;;;;;16.02;8.00;;;;;;;2.43;72.62;100915.34;5057304;28;20422;-89
2022/03/08 08:58:56;;;;;;;22.67;6.72;;;;;;;2.63;72.40;100909.69;4976512;28;20058;-88
2022/03/08 09:01:29;;;;;;;17.55;6.78;;;;;;;2.75;71.83;100909.41;4978313;28;20029;-89
2022/03/08 09:04:02;;;;;;;15.35;6.20;;;;;;;2.79;71.05;100913.63;4961162;28;20034;-89
2022/03/08 09:06:31;;;;;;;18.92;8.07;;;;;;;2.81;70.87;100909.25;4959056;28;20109;-86
2022/03/08 09:08:57;;;;;;;15.88;7.60;;;;;;;2.87;70.89;100910.84;4996846;28;20090;-88
2022/03/08 09:11:34;;;;;;;18.58;7.38;;;;;;;2.94;71.32;100914.97;4980049;28;20065;-88
2022/03/08 09:14:52;;;;;;;18.17;7.10;;;;;;;3.02;71.03;100919.97;4979521;28;20553;-89
2022/03/08 09:17:18;;;;;;;17.90;7.68;;;;;;;3.10;70.60;100918.03;4967198;28;20447;-88
2022/03/08 09:19:44;;;;;;;28.00;8.80;;;;;;;3.14;70.37;100912.72;4975718;28;20045;-88
2022/03/08 09:22:10;;;;;;;21.67;9.02;;;;;;;3.22;69.85;100917.69;4989513;28;20172;-88
2022/03/08 09:24:37;;;;;;;28.63;10.38;;;;;;;3.30;70.07;100914.88;4944022;28;20054;-88
2022/03/08 09:27:12;;;;;;;16.92;7.40;;;;;;;3.40;69.71;100921.53;4974714;28;20077;-87
2022/03/08 09:29:38;;;;;;;15.02;7.63;;;;;;;3.44;69.16;100919.72;4996068;28;20075;-89
2022/03/08 09:32:04;;;;;;;12.52;6.43;;;;;;;3.48;68.88;100914.38;4991636;28;20050;-88
2022/03/08 09:34:31;;;;;;;16.38;6.78;;;;;;;3.52;68.39;100912.56;5007601;28;20437;-88
2022/03/08 09:37:02;;;;;;;22.50;9.52;;;;;;;3.63;68.31;100919.19;5053726;28;20029;-88
2022/03/08 09:39:30;;;;;;;15.50;6.53;;;;;;;3.72;68.41;100917.22;5034556;28;20041;-88
2022/03/08 09:41:57;;;;;;;12.95;5.93;;;;;;;3.80;67.60;100923.88;5056123;28;20032;-88
2022/03/08 09:44:26;;;;;;;19.67;7.63;;;;;;;3.88;68.05;100911.53;5055713;28;20033;-89
2022/03/08 09:46:51;;;;;;;19.10;6.10;;;;;;;3.95;67.86;100914.78;5052922;28;20029;-88
2022/03/08 09:49:25;;;;;;;19.27;6.68;;;;;;;4.05;66.47;100913.63;5052524;28;20077;-88
2022/03/08 09:51:54;;;;;;;16.20;7.47;;;;;;;4.13;65.56;100911.66;5052560;28;20029;-91
2022/03/08 09:54:20;;;;;;;;;;;;;;;4.17;65.47;100919.34;5061668;28;20154;-88
2022/03/08 09:56:51;;;;;;;17.20;5.97;;;;;;;4.16;65.06;100913.31;5055372;28;19913;-87
2022/03/08 09:59:20;;;;;;;12.18;5.68;;;;;;;4.21;65.13;100921.78;5039328;28;20508;-88
2022/03/08 10:01:47;;;;;;;11.52;5.93;;;;;;;4.26;65.09;100916.47;5036076;28;20120;-89
2022/03/08 10:04:17;;;;;;;16.02;5.95;;;;;;;4.32;65.30;100918.88;5037657;28;20489;-86
2022/03/08 10:06:44;;;;;;;29.73;6.00;;;;;;;4.43;64.73;100916.78;5036765;28;20354;-87
2022/03/08 10:09:15;;;;;;;17.38;5.88;;;;;;;4.52;64.54;100916.50;5055129;28;20132;-87
2022/03/08 10:12:05;;;;;;;14.07;5.35;;;;;;;4.71;63.83;100918.50;5058004;28;20026;-89
2022/03/08 10:14:39;;;;;;;10.48;4.20;;;;;;;4.87;61.05;100924.91;5055688;28;20099;-89
2022/03/08 10:17:28;;;;;;;9.55;3.53;;;;;;;4.92;60.96;100916.94;5055844;28;20126;-88
2022/03/08 10:19:54;;;;;;;18.65;4.60;;;;;;;4.93;61.04;100921.25;5071419;28;20044;-89
2022/03/08 10:22:25;;;;;;;17.83;7.50;;;;;;;4.95;60.72;100922.91;5059004;28;20029;-90
2022/03/08 10:24:52;;;;;;;18.13;8.20;;;;;;;5.01;59.82;100921.84;5060171;28;20025;-88
2022/03/08 10:27:19;;;;;;;18.55;6.93;;;;;;;5.06;59.44;100923.38;5058592;28;20076;-86
2022/03/08 10:29:49;;;;;;;18.20;5.15;;;;;;;5.17;59.06;100924.78;5058719;28;20033;-88
2022/03/08 10:32:18;;;;;;;20.42;4.85;;;;;;;5.27;57.68;100924.41;5062976;28;20045;-88
2022/03/08 10:34:53;;;;;;;10.75;3.65;;;;;;;5.34;55.06;100920.69;5057591;28;20083;-87
2022/03/08 10:37:24;;;;;;;7.05;2.90;;;;;;;5.43;52.84;100916.06;5037617;28;20036;-87
2022/03/08 10:40:00;;;;;;;12.73;3.97;;;;;;;5.48;53.94;100912.38;5076540;28;20094;-86
2022/03/08 10:42:37;;;;;;;8.55;3.78;;;;;;;5.45;54.52;100915.13;5029841;28;20057;-87
2022/03/08 10:45:10;;;;;;;9.75;4.00;;;;;;;5.44;55.91;100917.75;5034427;28;20446;-87
2022/03/08 10:47:45;;;;;;;11.68;3.38;;;;;;;5.58;53.42;100923.31;5037966;28;20026;-88
2022/03/08 10:50:15;;;;;;;12.10;3.20;;;;;;;5.67;52.63;100922.13;5055257;28;20048;-88
2022/03/08 10:52:49;;;;;;;13.43;3.50;;;;;;;5.71;53.32;100923.69;5057496;28;20033;-90
2022/03/08 10:55:37;;;;;;;9.48;3.33;;;;;;;5.74;53.54;100907.97;5056376;28;20060;-90
2022/03/08 10:58:05;;;;;;;32.53;5.68;;;;;;;5.84;53.74;100909.34;5089323;28;20098;-88
2022/03/08 11:00:45;;;;;;;18.70;4.15;;;;;;;5.89;53.17;100904.81;5084717;28;20407;-88
2022/03/08 11:03:20;;;;;;;16.20;4.55;;;;;;;5.96;52.66;100895.91;5052240;28;20048;-88
2022/03/08 11:05:53;;;;;;;22.67;4.82;;;;;;;5.95;52.89;100895.97;5038329;28;20033;-89
2022/03/08 11:08:27;;;;;;;12.63;3.70;;;;;;;5.97;53.08;100897.63;5072884;28;20033;-88
2022/03/08 11:10:53;;;;;;;11.60;3.78;;;;;;;6.00;52.67;100884.47;5054366;28;20053;-87
2022/03/08 11:13:19;;;;;;;12.07;5.40;;;;;;;5.90;52.13;100879.66;5074443;22;20114;-75
2022/03/08 11:15:45;;;;;;;9.50;3.50;;;;;;;5.79;52.45;100869.66;5028819;28;20029;-74
2022/03/08 11:18:13;;;;;;;8.82;3.92;;;;;;;5.86;52.76;100876.31;5030862;28;20068;-73
2022/03/08 11:20:41;;;;;;;9.30;3.60;;;;;;;5.98;51.50;100878.47;5036850;28;20117;-76
2022/03/08 11:23:07;;;;;;;11.32;3.05;;;;;;;5.98;51.28;100878.47;5024843;28;20297;-76
2022/03/08 11:25:43;;;;;;;10.10;3.17;;;;;;;5.92;50.72;100876.09;5024801;28;20050;-74
2022/03/08 11:28:08;;;;;;;9.57;3.03;;;;;;;5.91;51.03;100886.56;5027680;28;20101;-75
2022/03/08 11:30:39;;;;;;;21.40;3.88;;;;;;;6.00;52.01;100884.47;5030025;28;20402;-75
2022/03/08 11:33:23;;;;;;;15.38;3.85;;;;;;;6.15;50.03;100887.38;5027669;28;20057;-76
2022/03/08 11:36:08;;;;;;;11.25;3.17;;;;;;;6.32;49.27;100881.53;5026236;28;20030;-74
2022/03/08 11:38:33;;;;;;;15.18;3.63;;;;;;;6.38;49.22;100887.34;5019287;28;20037;-76
2022/03/08 11:40:59;;;;;;;5.47;2.80;;;;;;;6.46;49.17;100879.22;5029590;28;20033;-75
2022/03/08 11:43:39;;;;;;;11.73;4.15;;;;;;;6.58;50.27;100886.53;5022753;28;20083;-75
2022/03/08 11:46:14;;;;;;;42.30;7.53;;;;;;;6.64;50.91;100869.81;5032821;28;20642;-78
2022/03/08 11:48:57;;;;;;;30.65;4.63;;;;;;;6.78;49.89;100875.28;5024487;28;20146;-75